sensor_id;sensor_type;location;lat;lon;timestamp;temperature;humidity
24103;DHT22;12278;53.058;9.028;2022-12-07T00:00:20;4.40;99.90
24103;DHT22;12278;53.058;9.028;2022-12-07T00:04:20;4.40;99.90
24103;DHT22;12278;53.058;9.028;2022-12-07T00:08:21;4.40;99.90
24103;DHT22;12278;53.058;9.028;2022-12-07T00:12:22;4.40;99.90
24103;DHT22;12278;53.058;9.028;2022-12-07T00:16:25;4.40;99.90
24103;DHT22;12278;53.058;9.028;2022-12-07T00:20:26;4.30;99.90
24103;DHT22;12278;53.058;9.028;2022-12-07T00:24:27;4.30;99.90
24103;DHT22;12278;53.058;9.028;2022-12-07T00:28:27;4.20;99.90
24103;DHT22;12278;53.058;9.028;2022-12-07T00:32:28;4.00;99.90
24103;DHT22;12278;53.058;9.028;2022-12-07T00:36:29;3.90;99.90
24103;DHT22;12278;53.058;9.028;2022-12-07T00:40:29;3.80;99.90
24103;DHT22;12278;53.058;9.028;2022-12-07T00:44:30;3.70;99.90
24103;DHT22;12278;53.058;9.028;2022-12-07T00:48:30;3.70;99.90
24103;DHT22;12278;53.058;9.028;2022-12-07T00:52:31;3.70;99.90
24103;DHT22;12278;53.058;9.028;2022-12-07T00:56:32;3.70;99.90
24103;DHT22;12278;53.058;9.028;2022-12-07T01:00:32;3.80;99.90
24103;DHT22;12278;53.058;9.028;2022-12-07T01:04:35;3.80;99.90
24103;DHT22;12278;53.058;9.028;2022-12-07T01:08:36;3.80;99.90
24103;DHT22;12278;53.058;9.028;2022-12-07T01:12:37;3.80;99.90
24103;DHT22;12278;53.058;9.028;2022-12-07T01:16:39;3.70;99.90
24103;DHT22;12278;53.058;9.028;2022-12-07T01:20:40;3.60;99.90
24103;DHT22;12278;53.058;9.028;2022-12-07T01:24:41;3.70;99.90
24103;DHT22;12278;53.058;9.028;2022-12-07T01:28:42;3.70;99.90
24103;DHT22;12278;53.058;9.028;2022-12-07T01:32:46;3.80;99.90
24103;DHT22;12278;53.058;9.028;2022-12-07T01:36:46;3.70;99.90
24103;DHT22;12278;53.058;9.028;2022-12-07T01:40:54;3.70;99.90
24103;DHT22;12278;53.058;9.028;2022-12-07T01:54:09;3.80;99.90
24103;DHT22;12278;53.058;9.028;2022-12-07T01:58:12;3.80;99.90
24103;DHT22;12278;53.058;9.028;2022-12-07T02:02:19;3.70;99.90
24103;DHT22;12278;53.058;9.028;2022-12-07T02:06:23;3.70;99.90
24103;DHT22;12278;53.058;9.028;2022-12-07T02:10:27;3.70;99.90
24103;DHT22;12278;53.058;9.028;2022-12-07T02:14:27;3.60;99.90
24103;DHT22;12278;53.058;9.028;2022-12-07T02:32:16;3.60;99.90
24103;DHT22;12278;53.058;9.028;2022-12-07T02:36:26;3.50;99.90
24103;DHT22;12278;53.058;9.028;2022-12-07T02:40:40;3.50;99.90
24103;DHT22;12278;53.058;9.028;2022-12-07T02:44:42;3.50;99.90
24103;DHT22;12278;53.058;9.028;2022-12-07T02:48:45;3.50;99.90
24103;DHT22;12278;53.058;9.028;2022-12-07T02:52:48;3.50;99.90
24103;DHT22;12278;53.058;9.028;2022-12-07T02:57:07;3.50;99.90
24103;DHT22;12278;53.058;9.028;2022-12-07T03:01:28;3.40;99.90
24103;DHT22;12278;53.058;9.028;2022-12-07T03:10:03;3.20;99.90
24103;DHT22;12278;53.058;9.028;2022-12-07T03:14:17;3.20;99.90
24103;DHT22;12278;53.058;9.028;2022-12-07T03:18:23;3.30;99.90
24103;DHT22;12278;53.058;9.028;2022-12-07T03:22:25;3.40;99.90
24103;DHT22;12278;53.058;9.028;2022-12-07T03:26:44;3.50;99.90
24103;DHT22;12278;53.058;9.028;2022-12-07T03:30:49;3.50;99.90
24103;DHT22;12278;53.058;9.028;2022-12-07T03:35:08;3.60;99.90
24103;DHT22;12278;53.058;9.028;2022-12-07T03:43:34;3.70;99.90
24103;DHT22;12278;53.058;9.028;2022-12-07T03:47:58;3.70;99.90
24103;DHT22;12278;53.058;9.028;2022-12-07T03:56:03;3.70;99.90
24103;DHT22;12278;53.058;9.028;2022-12-07T04:00:07;3.70;99.90
24103;DHT22;12278;53.058;9.028;2022-12-07T04:04:08;3.70;99.90
24103;DHT22;12278;53.058;9.028;2022-12-07T04:08:09;3.70;99.90
24103;DHT22;12278;53.058;9.028;2022-12-07T04:12:09;3.80;99.90
24103;DHT22;12278;53.058;9.028;2022-12-07T04:16:10;3.80;99.90
24103;DHT22;12278;53.058;9.028;2022-12-07T04:20:10;3.80;99.90
24103;DHT22;12278;53.058;9.028;2022-12-07T04:24:14;3.70;99.90
24103;DHT22;12278;53.058;9.028;2022-12-07T04:28:15;3.70;99.90
24103;DHT22;12278;53.058;9.028;2022-12-07T04:32:16;3.70;99.90
24103;DHT22;12278;53.058;9.028;2022-12-07T04:36:17;3.60;99.90
24103;DHT22;12278;53.058;9.028;2022-12-07T04:40:17;3.60;99.90
24103;DHT22;12278;53.058;9.028;2022-12-07T04:44:26;3.60;99.90
24103;DHT22;12278;53.058;9.028;2022-12-07T04:48:27;3.70;99.90
24103;DHT22;12278;53.058;9.028;2022-12-07T04:52:28;3.70;99.90
24103;DHT22;12278;53.058;9.028;2022-12-07T04:56:31;3.70;99.90
24103;DHT22;12278;53.058;9.028;2022-12-07T05:00:31;3.70;99.90
24103;DHT22;12278;53.058;9.028;2022-12-07T05:04:32;3.60;99.90
24103;DHT22;12278;53.058;9.028;2022-12-07T05:08:35;3.70;99.90
24103;DHT22;12278;53.058;9.028;2022-12-07T05:12:38;3.70;99.90
24103;DHT22;12278;53.058;9.028;2022-12-07T05:16:39;3.70;99.90
24103;DHT22;12278;53.058;9.028;2022-12-07T05:20:42;3.70;99.90
24103;DHT22;12278;53.058;9.028;2022-12-07T05:24:43;3.80;99.90
24103;DHT22;12278;53.058;9.028;2022-12-07T05:28:50;3.70;99.90
24103;DHT22;12278;53.058;9.028;2022-12-07T05:32:51;3.70;99.90
24103;DHT22;12278;53.058;9.028;2022-12-07T05:36:52;3.70;99.90
24103;DHT22;12278;53.058;9.028;2022-12-07T05:40:52;3.70;99.90
24103;DHT22;12278;53.058;9.028;2022-12-07T05:44:53;3.60;99.90
24103;DHT22;12278;53.058;9.028;2022-12-07T05:48:53;3.50;99.90
24103;DHT22;12278;53.058;9.028;2022-12-07T05:52:54;3.50;99.90
24103;DHT22;12278;53.058;9.028;2022-12-07T05:57:02;3.50;99.90
24103;DHT22;12278;53.058;9.028;2022-12-07T06:01:09;3.50;99.90
24103;DHT22;12278;53.058;9.028;2022-12-07T06:05:09;3.50;99.90
24103;DHT22;12278;53.058;9.028;2022-12-07T06:09:10;3.40;99.90
24103;DHT22;12278;53.058;9.028;2022-12-07T06:13:12;3.40;99.90
24103;DHT22;12278;53.058;9.028;2022-12-07T06:17:14;3.50;99.90
24103;DHT22;12278;53.058;9.028;2022-12-07T06:21:25;3.50;99.90
24103;DHT22;12278;53.058;9.028;2022-12-07T06:25:27;3.50;99.90
24103;DHT22;12278;53.058;9.028;2022-12-07T06:29:27;3.50;99.90
24103;DHT22;12278;53.058;9.028;2022-12-07T06:33:28;3.50;99.90
24103;DHT22;12278;53.058;9.028;2022-12-07T06:37:29;3.50;99.90
24103;DHT22;12278;53.058;9.028;2022-12-07T06:41:37;3.50;99.90
24103;DHT22;12278;53.058;9.028;2022-12-07T06:45:37;3.50;99.90
24103;DHT22;12278;53.058;9.028;2022-12-07T06:49:38;3.50;99.90
24103;DHT22;12278;53.058;9.028;2022-12-07T06:53:39;3.50;99.90
24103;DHT22;12278;53.058;9.028;2022-12-07T06:57:39;3.40;99.90
24103;DHT22;12278;53.058;9.028;2022-12-07T07:01:47;3.40;99.90
24103;DHT22;12278;53.058;9.028;2022-12-07T07:05:48;3.40;99.90
24103;DHT22;12278;53.058;9.028;2022-12-07T07:09:53;3.40;99.90
24103;DHT22;12278;53.058;9.028;2022-12-07T07:13:58;3.40;99.90
24103;DHT22;12278;53.058;9.028;2022-12-07T07:18:03;3.40;99.90
24103;DHT22;12278;53.058;9.028;2022-12-07T07:22:07;3.30;99.90
24103;DHT22;12278;53.058;9.028;2022-12-07T07:26:10;3.30;99.90
24103;DHT22;12278;53.058;9.028;2022-12-07T07:30:13;3.30;99.90
24103;DHT22;12278;53.058;9.028;2022-12-07T07:34:14;3.20;99.90
24103;DHT22;12278;53.058;9.028;2022-12-07T07:38:15;3.30;99.90
24103;DHT22;12278;53.058;9.028;2022-12-07T07:42:15;3.30;99.90
24103;DHT22;12278;53.058;9.028;2022-12-07T07:46:16;3.30;99.90
24103;DHT22;12278;53.058;9.028;2022-12-07T07:50:17;3.30;99.90
24103;DHT22;12278;53.058;9.028;2022-12-07T07:54:18;3.30;99.90
24103;DHT22;12278;53.058;9.028;2022-12-07T07:58:19;3.30;99.90
24103;DHT22;12278;53.058;9.028;2022-12-07T08:02:21;3.30;99.90
24103;DHT22;12278;53.058;9.028;2022-12-07T08:06:23;3.30;99.90
24103;DHT22;12278;53.058;9.028;2022-12-07T08:10:24;3.30;99.90
24103;DHT22;12278;53.058;9.028;2022-12-07T08:14:24;3.30;99.90
24103;DHT22;12278;53.058;9.028;2022-12-07T08:18:27;3.40;99.90
24103;DHT22;12278;53.058;9.028;2022-12-07T08:22:34;3.50;99.90
24103;DHT22;12278;53.058;9.028;2022-12-07T08:26:35;3.40;99.90
24103;DHT22;12278;53.058;9.028;2022-12-07T08:30:42;3.50;99.90
24103;DHT22;12278;53.058;9.028;2022-12-07T08:34:43;3.50;99.90
24103;DHT22;12278;53.058;9.028;2022-12-07T08:38:46;3.60;99.90
24103;DHT22;12278;53.058;9.028;2022-12-07T08:42:50;3.60;99.90
24103;DHT22;12278;53.058;9.028;2022-12-07T08:46:57;3.60;99.90
24103;DHT22;12278;53.058;9.028;2022-12-07T08:51:02;3.60;99.90
24103;DHT22;12278;53.058;9.028;2022-12-07T08:55:04;3.60;99.90
24103;DHT22;12278;53.058;9.028;2022-12-07T08:59:06;3.60;99.90
24103;DHT22;12278;53.058;9.028;2022-12-07T09:03:07;3.70;99.90
24103;DHT22;12278;53.058;9.028;2022-12-07T09:07:07;3.80;99.90
24103;DHT22;12278;53.058;9.028;2022-12-07T09:11:09;3.90;99.90
24103;DHT22;12278;53.058;9.028;2022-12-07T09:15:09;4.00;99.90
24103;DHT22;12278;53.058;9.028;2022-12-07T09:19:10;4.10;99.90
24103;DHT22;12278;53.058;9.028;2022-12-07T09:23:11;4.00;99.90
24103;DHT22;12278;53.058;9.028;2022-12-07T09:27:12;4.00;99.90
24103;DHT22;12278;53.058;9.028;2022-12-07T09:31:12;4.00;99.90
24103;DHT22;12278;53.058;9.028;2022-12-07T09:35:14;4.10;99.90
24103;DHT22;12278;53.058;9.028;2022-12-07T09:39:15;4.30;99.90
24103;DHT22;12278;53.058;9.028;2022-12-07T09:43:21;4.60;99.90
24103;DHT22;12278;53.058;9.028;2022-12-07T09:47:22;4.40;99.90
24103;DHT22;12278;53.058;9.028;2022-12-07T09:51:25;4.40;99.90
24103;DHT22;12278;53.058;9.028;2022-12-07T09:55:28;4.30;99.90
24103;DHT22;12278;53.058;9.028;2022-12-07T09:59:37;4.50;99.90
24103;DHT22;12278;53.058;9.028;2022-12-07T10:03:42;4.60;99.90
24103;DHT22;12278;53.058;9.028;2022-12-07T10:07:45;5.00;99.90
24103;DHT22;12278;53.058;9.028;2022-12-07T10:15:59;5.70;99.90
24103;DHT22;12278;53.058;9.028;2022-12-07T10:24:22;7.70;99.90
24103;DHT22;12278;53.058;9.028;2022-12-07T10:28:23;7.60;99.90
24103;DHT22;12278;53.058;9.028;2022-12-07T10:32:33;6.90;99.90
24103;DHT22;12278;53.058;9.028;2022-12-07T10:36:37;6.30;99.90
24103;DHT22;12278;53.058;9.028;2022-12-07T10:40:38;5.70;99.90
24103;DHT22;12278;53.058;9.028;2022-12-07T10:44:39;5.20;99.90
24103;DHT22;12278;53.058;9.028;2022-12-07T10:57:15;5.10;99.90
24103;DHT22;12278;53.058;9.028;2022-12-07T11:05:59;5.20;99.90
24103;DHT22;12278;53.058;9.028;2022-12-07T11:10:22;5.50;99.90
24103;DHT22;12278;53.058;9.028;2022-12-07T11:14:44;6.20;99.90
24103;DHT22;12278;53.058;9.028;2022-12-07T11:36:54;6.20;99.90
24103;DHT22;12278;53.058;9.028;2022-12-07T11:41:00;5.80;99.90
24103;DHT22;12278;53.058;9.028;2022-12-07T11:45:33;5.40;99.90
24103;DHT22;12278;53.058;9.028;2022-12-07T11:49:51;5.40;99.90
24103;DHT22;12278;53.058;9.028;2022-12-07T11:54:01;5.40;99.90
24103;DHT22;12278;53.058;9.028;2022-12-07T11:58:11;5.80;99.90
24103;DHT22;12278;53.058;9.028;2022-12-07T12:02:21;6.40;99.90
24103;DHT22;12278;53.058;9.028;2022-12-07T12:06:30;6.10;99.90
24103;DHT22;12278;53.058;9.028;2022-12-07T12:11:02;5.90;99.90
24103;DHT22;12278;53.058;9.028;2022-12-07T12:15:36;5.60;99.90
24103;DHT22;12278;53.058;9.028;2022-12-07T12:24:18;5.30;99.90
24103;DHT22;12278;53.058;9.028;2022-12-07T12:28:48;5.60;99.90
24103;DHT22;12278;53.058;9.028;2022-12-07T12:32:51;5.70;99.90
24103;DHT22;12278;53.058;9.028;2022-12-07T12:36:52;5.60;99.90
24103;DHT22;12278;53.058;9.028;2022-12-07T12:40:54;5.30;99.90
24103;DHT22;12278;53.058;9.028;2022-12-07T12:53:26;5.10;99.90
24103;DHT22;12278;53.058;9.028;2022-12-07T12:57:30;5.00;99.90
24103;DHT22;12278;53.058;9.028;2022-12-07T13:01:40;4.90;99.90
24103;DHT22;12278;53.058;9.028;2022-12-07T13:05:42;4.80;99.90
24103;DHT22;12278;53.058;9.028;2022-12-07T13:09:44;4.50;99.90
24103;DHT22;12278;53.058;9.028;2022-12-07T13:13:45;4.20;99.90
24103;DHT22;12278;53.058;9.028;2022-12-07T13:17:56;4.00;99.90
24103;DHT22;12278;53.058;9.028;2022-12-07T13:21:57;4.00;99.90
24103;DHT22;12278;53.058;9.028;2022-12-07T13:30:21;4.20;99.90
24103;DHT22;12278;53.058;9.028;2022-12-07T13:38:33;4.40;99.90
24103;DHT22;12278;53.058;9.028;2022-12-07T13:42:35;4.40;99.90
24103;DHT22;12278;53.058;9.028;2022-12-07T13:50:56;4.30;99.90
24103;DHT22;12278;53.058;9.028;2022-12-07T13:58:58;4.20;99.90
24103;DHT22;12278;53.058;9.028;2022-12-07T14:03:04;4.20;99.90
24103;DHT22;12278;53.058;9.028;2022-12-07T14:07:27;4.00;99.90
24103;DHT22;12278;53.058;9.028;2022-12-07T14:11:31;4.10;99.90
24103;DHT22;12278;53.058;9.028;2022-12-07T14:15:33;4.00;99.90
24103;DHT22;12278;53.058;9.028;2022-12-07T14:20:31;4.10;99.90
24103;DHT22;12278;53.058;9.028;2022-12-07T14:24:43;4.20;99.90
24103;DHT22;12278;53.058;9.028;2022-12-07T14:28:44;4.20;99.90
24103;DHT22;12278;53.058;9.028;2022-12-07T14:32:54;4.30;99.90
24103;DHT22;12278;53.058;9.028;2022-12-07T14:36:55;4.20;99.90
24103;DHT22;12278;53.058;9.028;2022-12-07T14:40:56;4.10;99.90
24103;DHT22;12278;53.058;9.028;2022-12-07T14:45:21;3.90;99.90
24103;DHT22;12278;53.058;9.028;2022-12-07T14:49:22;3.90;99.90
24103;DHT22;12278;53.058;9.028;2022-12-07T14:53:29;3.80;99.90
24103;DHT22;12278;53.058;9.028;2022-12-07T14:57:30;3.80;99.90
24103;DHT22;12278;53.058;9.028;2022-12-07T15:01:31;3.70;99.90
24103;DHT22;12278;53.058;9.028;2022-12-07T15:05:33;3.70;99.90
24103;DHT22;12278;53.058;9.028;2022-12-07T15:09:34;3.50;99.90
24103;DHT22;12278;53.058;9.028;2022-12-07T15:13:34;3.40;99.90
24103;DHT22;12278;53.058;9.028;2022-12-07T15:17:53;3.30;99.90
24103;DHT22;12278;53.058;9.028;2022-12-07T15:21:55;3.40;99.90
24103;DHT22;12278;53.058;9.028;2022-12-07T15:25:56;3.20;99.90
24103;DHT22;12278;53.058;9.028;2022-12-07T15:29:59;3.20;99.90
24103;DHT22;12278;53.058;9.028;2022-12-07T15:34:00;3.20;99.90
24103;DHT22;12278;53.058;9.028;2022-12-07T15:38:01;3.20;99.90
24103;DHT22;12278;53.058;9.028;2022-12-07T15:42:02;3.20;99.90
24103;DHT22;12278;53.058;9.028;2022-12-07T15:46:17;3.00;99.90
24103;DHT22;12278;53.058;9.028;2022-12-07T15:50:17;3.10;99.90
24103;DHT22;12278;53.058;9.028;2022-12-07T15:54:24;2.80;99.90
24103;DHT22;12278;53.058;9.028;2022-12-07T15:58:24;2.90;99.90
24103;DHT22;12278;53.058;9.028;2022-12-07T16:02:25;3.00;99.90
24103;DHT22;12278;53.058;9.028;2022-12-07T16:06:26;2.90;99.90
24103;DHT22;12278;53.058;9.028;2022-12-07T16:10:27;2.90;99.90
24103;DHT22;12278;53.058;9.028;2022-12-07T16:14:27;2.90;99.90
24103;DHT22;12278;53.058;9.028;2022-12-07T16:18:28;2.90;99.90
24103;DHT22;12278;53.058;9.028;2022-12-07T16:22:29;2.90;99.90
24103;DHT22;12278;53.058;9.028;2022-12-07T16:26:30;2.90;99.90
24103;DHT22;12278;53.058;9.028;2022-12-07T16:30:31;2.90;99.90
24103;DHT22;12278;53.058;9.028;2022-12-07T16:34:31;2.90;99.90
24103;DHT22;12278;53.058;9.028;2022-12-07T16:38:39;2.80;99.90
24103;DHT22;12278;53.058;9.028;2022-12-07T16:42:40;2.80;99.90
24103;DHT22;12278;53.058;9.028;2022-12-07T16:46:40;2.90;99.90
24103;DHT22;12278;53.058;9.028;2022-12-07T16:50:42;3.00;99.90
24103;DHT22;12278;53.058;9.028;2022-12-07T16:54:43;3.00;99.90
24103;DHT22;12278;53.058;9.028;2022-12-07T16:58:44;3.10;99.90
24103;DHT22;12278;53.058;9.028;2022-12-07T17:02:46;3.00;99.90
24103;DHT22;12278;53.058;9.028;2022-12-07T17:06:47;3.10;99.90
24103;DHT22;12278;53.058;9.028;2022-12-07T17:10:47;3.20;99.90
24103;DHT22;12278;53.058;9.028;2022-12-07T17:14:48;3.30;99.90
24103;DHT22;12278;53.058;9.028;2022-12-07T17:19:10;3.20;99.90
24103;DHT22;12278;53.058;9.028;2022-12-07T17:23:10;3.30;99.90
24103;DHT22;12278;53.058;9.028;2022-12-07T17:27:11;3.40;99.90
24103;DHT22;12278;53.058;9.028;2022-12-07T17:31:14;3.30;99.90
24103;DHT22;12278;53.058;9.028;2022-12-07T17:35:15;3.30;99.90
24103;DHT22;12278;53.058;9.028;2022-12-07T17:39:17;3.20;99.90
24103;DHT22;12278;53.058;9.028;2022-12-07T17:43:18;3.30;99.90
24103;DHT22;12278;53.058;9.028;2022-12-07T17:47:18;3.40;99.90
24103;DHT22;12278;53.058;9.028;2022-12-07T17:51:20;3.30;99.90
24103;DHT22;12278;53.058;9.028;2022-12-07T17:55:40;3.30;99.90
24103;DHT22;12278;53.058;9.028;2022-12-07T17:59:40;3.10;99.90
24103;DHT22;12278;53.058;9.028;2022-12-07T18:03:44;3.10;99.90
24103;DHT22;12278;53.058;9.028;2022-12-07T18:07:45;3.00;99.90
24103;DHT22;12278;53.058;9.028;2022-12-07T18:11:45;3.00;99.90
24103;DHT22;12278;53.058;9.028;2022-12-07T18:15:46;2.90;99.90
24103;DHT22;12278;53.058;9.028;2022-12-07T18:19:53;2.90;99.90
24103;DHT22;12278;53.058;9.028;2022-12-07T18:23:55;2.90;99.90
24103;DHT22;12278;53.058;9.028;2022-12-07T18:27:56;2.90;99.90
24103;DHT22;12278;53.058;9.028;2022-12-07T18:31:57;2.80;99.90
24103;DHT22;12278;53.058;9.028;2022-12-07T18:35:59;2.80;99.90
24103;DHT22;12278;53.058;9.028;2022-12-07T18:39:59;2.90;99.90
24103;DHT22;12278;53.058;9.028;2022-12-07T18:44:03;2.90;99.90
24103;DHT22;12278;53.058;9.028;2022-12-07T18:48:04;3.00;99.90
24103;DHT22;12278;53.058;9.028;2022-12-07T18:52:05;2.90;99.90
24103;DHT22;12278;53.058;9.028;2022-12-07T18:56:15;3.00;99.90
24103;DHT22;12278;53.058;9.028;2022-12-07T19:00:17;3.10;99.90
24103;DHT22;12278;53.058;9.028;2022-12-07T19:04:24;3.20;99.90
24103;DHT22;12278;53.058;9.028;2022-12-07T19:08:25;3.20;99.90
24103;DHT22;12278;53.058;9.028;2022-12-07T19:12:26;3.10;99.90
24103;DHT22;12278;53.058;9.028;2022-12-07T19:16:40;3.20;99.90
24103;DHT22;12278;53.058;9.028;2022-12-07T19:20:41;3.20;99.90
24103;DHT22;12278;53.058;9.028;2022-12-07T19:24:44;3.30;99.90
24103;DHT22;12278;53.058;9.028;2022-12-07T19:28:49;3.30;99.90
24103;DHT22;12278;53.058;9.028;2022-12-07T19:32:49;3.20;99.90
24103;DHT22;12278;53.058;9.028;2022-12-07T19:36:50;3.20;99.90
24103;DHT22;12278;53.058;9.028;2022-12-07T19:40:51;3.20;99.90
24103;DHT22;12278;53.058;9.028;2022-12-07T19:44:51;3.20;99.90
24103;DHT22;12278;53.058;9.028;2022-12-07T19:48:52;3.20;99.90
24103;DHT22;12278;53.058;9.028;2022-12-07T19:52:53;3.20;99.90
24103;DHT22;12278;53.058;9.028;2022-12-07T19:56:55;3.20;99.90
24103;DHT22;12278;53.058;9.028;2022-12-07T20:01:02;3.20;99.90
24103;DHT22;12278;53.058;9.028;2022-12-07T20:05:03;3.10;99.90
24103;DHT22;12278;53.058;9.028;2022-12-07T20:09:04;3.10;99.90
24103;DHT22;12278;53.058;9.028;2022-12-07T20:13:05;3.10;99.90
24103;DHT22;12278;53.058;9.028;2022-12-07T20:17:24;3.10;99.90
24103;DHT22;12278;53.058;9.028;2022-12-07T20:21:24;3.00;99.90
24103;DHT22;12278;53.058;9.028;2022-12-07T20:25:26;3.00;99.90
24103;DHT22;12278;53.058;9.028;2022-12-07T20:29:27;3.00;99.90
24103;DHT22;12278;53.058;9.028;2022-12-07T20:33:28;3.00;99.90
24103;DHT22;12278;53.058;9.028;2022-12-07T20:37:29;3.00;99.90
24103;DHT22;12278;53.058;9.028;2022-12-07T20:41:34;2.90;99.90
24103;DHT22;12278;53.058;9.028;2022-12-07T20:45:53;2.90;99.90
24103;DHT22;12278;53.058;9.028;2022-12-07T20:49:58;2.90;99.90
24103;DHT22;12278;53.058;9.028;2022-12-07T20:53:58;2.90;99.90
24103;DHT22;12278;53.058;9.028;2022-12-07T20:57:59;2.90;99.90
24103;DHT22;12278;53.058;9.028;2022-12-07T21:02:00;2.90;99.90
24103;DHT22;12278;53.058;9.028;2022-12-07T21:06:01;2.90;99.90
24103;DHT22;12278;53.058;9.028;2022-12-07T21:10:03;3.00;99.90
24103;DHT22;12278;53.058;9.028;2022-12-07T21:14:05;3.00;99.90
24103;DHT22;12278;53.058;9.028;2022-12-07T21:18:05;3.00;99.90
24103;DHT22;12278;53.058;9.028;2022-12-07T21:22:06;3.00;99.90
24103;DHT22;12278;53.058;9.028;2022-12-07T21:26:11;3.10;99.90
24103;DHT22;12278;53.058;9.028;2022-12-07T21:30:12;3.10;99.90
24103;DHT22;12278;53.058;9.028;2022-12-07T21:34:16;3.00;99.90
24103;DHT22;12278;53.058;9.028;2022-12-07T21:38:17;3.00;99.90
24103;DHT22;12278;53.058;9.028;2022-12-07T21:42:18;3.00;99.90
24103;DHT22;12278;53.058;9.028;2022-12-07T21:46:21;3.00;99.90
24103;DHT22;12278;53.058;9.028;2022-12-07T21:50:22;3.00;99.90
24103;DHT22;12278;53.058;9.028;2022-12-07T21:54:22;3.00;99.90
24103;DHT22;12278;53.058;9.028;2022-12-07T21:58:23;3.00;99.90
24103;DHT22;12278;53.058;9.028;2022-12-07T22:02:24;3.00;99.90
24103;DHT22;12278;53.058;9.028;2022-12-07T22:06:25;3.00;99.90
24103;DHT22;12278;53.058;9.028;2022-12-07T22:10:26;3.10;99.90
24103;DHT22;12278;53.058;9.028;2022-12-07T22:14:36;3.10;99.90
24103;DHT22;12278;53.058;9.028;2022-12-07T22:18:55;3.00;99.90
24103;DHT22;12278;53.058;9.028;2022-12-07T22:23:12;3.00;99.90
24103;DHT22;12278;53.058;9.028;2022-12-07T22:31:43;3.10;99.90
24103;DHT22;12278;53.058;9.028;2022-12-07T22:35:51;3.10;99.90
24103;DHT22;12278;53.058;9.028;2022-12-07T22:39:52;3.00;99.90
24103;DHT22;12278;53.058;9.028;2022-12-07T22:43:56;3.10;99.90
24103;DHT22;12278;53.058;9.028;2022-12-07T22:47:57;3.10;99.90
24103;DHT22;12278;53.058;9.028;2022-12-07T22:51:58;3.10;99.90
24103;DHT22;12278;53.058;9.028;2022-12-07T22:56:02;3.00;99.90
24103;DHT22;12278;53.058;9.028;2022-12-07T23:00:04;3.10;99.90
24103;DHT22;12278;53.058;9.028;2022-12-07T23:04:04;3.00;99.90
24103;DHT22;12278;53.058;9.028;2022-12-07T23:08:06;3.00;99.90
24103;DHT22;12278;53.058;9.028;2022-12-07T23:12:08;3.00;99.90
24103;DHT22;12278;53.058;9.028;2022-12-07T23:16:28;3.00;99.90
24103;DHT22;12278;53.058;9.028;2022-12-07T23:20:29;3.00;99.90
24103;DHT22;12278;53.058;9.028;2022-12-07T23:24:33;3.00;99.90
24103;DHT22;12278;53.058;9.028;2022-12-07T23:28:34;3.00;99.90
24103;DHT22;12278;53.058;9.028;2022-12-07T23:32:35;3.10;99.90
24103;DHT22;12278;53.058;9.028;2022-12-07T23:36:36;3.00;99.90
24103;DHT22;12278;53.058;9.028;2022-12-07T23:40:36;3.10;99.90
24103;DHT22;12278;53.058;9.028;2022-12-07T23:44:41;3.10;99.90
24103;DHT22;12278;53.058;9.028;2022-12-07T23:48:42;3.10;99.90
24103;DHT22;12278;53.058;9.028;2022-12-07T23:52:43;3.10;99.90
24103;DHT22;12278;53.058;9.028;2022-12-07T23:56:44;3.00;99.90
